Time;durP1;ratioP1;P1;durP2;ratioP2;P2;SDS_P1;SDS_P2;PMS_P1;PMS_P2;Temp;Humidity;BMP_temperature;BMP_pressure;BME280_temperature;BME280_humidity;BME280_pressure;Samples;Min_cycle;Max_cycle;Signal;HPM_P1;HPM_P2
2021/10/24 00:00:54;;;;;;;8.53;4.07;;;4.80;99.90;;;;;;4156840;28;20466;-75
2021/10/24 00:02:56;;;;;;;6.70;3.77;;;4.80;99.90;;;;;;4166875;28;20489;-74
2021/10/24 00:04:58;;;;;;;8.40;3.90;;;4.80;99.90;;;;;;4174628;28;20461;-74
2021/10/24 00:07:00;;;;;;;9.20;4.20;;;4.80;99.90;;;;;;4181680;28;20515;-75
2021/10/24 00:09:02;;;;;;;8.17;3.70;;;4.70;99.90;;;;;;4181781;28;20488;-74
2021/10/24 00:11:03;;;;;;;8.60;4.03;;;4.70;99.90;;;;;;4174430;28;20531;-74
2021/10/24 00:13:06;;;;;;;9.30;4.17;;;4.70;99.90;;;;;;4180856;28;20444;-74
2021/10/24 00:15:09;;;;;;;8.40;3.87;;;4.70;99.90;;;;;;4165982;28;20963;-75
2021/10/24 00:17:11;;;;;;;12.80;3.70;;;4.60;99.90;;;;;;4165104;28;20465;-75
2021/10/24 00:19:13;;;;;;;12.13;4.23;;;4.60;99.90;;;;;;4161943;28;20520;-76
2021/10/24 00:21:15;;;;;;;9.40;4.00;;;4.60;99.90;;;;;;4157884;28;20457;-74
2021/10/24 00:23:16;;;;;;;6.03;3.60;;;4.60;99.90;;;;;;4160223;28;20498;-76
2021/10/24 00:25:18;;;;;;;7.70;3.73;;;4.60;99.90;;;;;;4164198;28;20531;-74
2021/10/24 00:27:20;;;;;;;9.03;3.67;;;4.60;99.90;;;;;;4164715;28;20521;-74
2021/10/24 00:29:23;;;;;;;8.50;4.00;;;4.50;99.90;;;;;;4168808;28;20470;-74
2021/10/24 00:31:24;;;;;;;7.10;3.77;;;4.50;99.90;;;;;;4169247;28;20458;-74
2021/10/24 00:33:26;;;;;;;9.67;4.43;;;4.50;99.90;;;;;;4180512;28;20468;-74
2021/10/24 00:35:28;;;;;;;13.10;4.23;;;4.50;99.90;;;;;;4173293;28;20513;-75
2021/10/24 00:37:29;;;;;;;7.00;3.70;;;4.50;99.90;;;;;;4152335;28;20471;-75
2021/10/24 00:39:31;;;;;;;9.27;3.90;;;4.50;99.90;;;;;;4163811;28;20481;-76
2021/10/24 00:41:33;;;;;;;10.33;4.40;;;4.40;99.90;;;;;;4164223;28;20811;-74
2021/10/24 00:43:35;;;;;;;9.17;4.00;;;4.40;99.90;;;;;;4148896;28;20479;-74
2021/10/24 00:45:38;;;;;;;9.20;4.37;;;4.40;99.90;;;;;;4162195;28;20509;-74
2021/10/24 00:47:40;;;;;;;8.47;3.83;;;4.40;99.90;;;;;;4164972;28;20469;-75
2021/10/24 00:49:42;;;;;;;12.77;4.10;;;4.30;99.90;;;;;;4163755;28;20519;-74
2021/10/24 00:51:44;;;;;;;10.00;4.10;;;4.30;99.90;;;;;;4163700;28;20929;-77
2021/10/24 00:53:46;;;;;;;11.90;4.90;;;4.30;99.90;;;;;;4156379;28;20467;-74
2021/10/24 00:55:48;;;;;;;9.40;4.37;;;4.30;99.90;;;;;;4153737;28;20461;-74
2021/10/24 00:57:51;;;;;;;8.80;4.23;;;4.30;99.90;;;;;;4163998;28;20955;-74
2021/10/24 00:59:53;;;;;;;11.27;4.20;;;4.30;99.90;;;;;;4164470;28;20504;-74
2021/10/24 01:01:56;;;;;;;10.67;4.23;;;4.20;99.90;;;;;;4164545;28;21040;-75
2021/10/24 01:03:58;;;;;;;7.47;3.73;;;4.20;99.90;;;;;;4164607;28;20446;-74
2021/10/24 01:06:01;;;;;;;12.03;4.17;;;4.20;99.90;;;;;;4171794;28;20479;-75
2021/10/24 01:08:03;;;;;;;9.17;4.07;;;4.20;99.90;;;;;;4180763;28;20893;-74
2021/10/24 01:10:07;;;;;;;8.50;4.00;;;4.20;99.90;;;;;;4173104;28;20505;-74
2021/10/24 01:12:09;;;;;;;7.07;3.97;;;4.20;99.90;;;;;;4180103;28;20938;-75
2021/10/24 01:14:12;;;;;;;7.13;3.53;;;4.10;99.90;;;;;;4170440;28;20826;-75
2021/10/24 01:16:15;;;;;;;9.17;3.90;;;4.10;99.90;;;;;;4169416;28;20883;-74
2021/10/24 01:18:18;;;;;;;10.50;4.10;;;4.10;99.90;;;;;;4164818;28;20449;-74
2021/10/24 01:20:22;;;;;;;8.57;4.20;;;4.10;99.90;;;;;;4147689;28;20486;-74
2021/10/24 01:22:26;;;;;;;9.17;3.90;;;4.10;99.90;;;;;;4150523;28;22616;-74
2021/10/24 01:24:28;;;;;;;8.47;3.93;;;4.00;99.90;;;;;;4163756;28;20515;-74
2021/10/24 01:26:30;;;;;;;9.73;3.63;;;4.00;99.90;;;;;;4163978;28;20598;-74
2021/10/24 01:28:33;;;;;;;9.10;3.73;;;4.00;99.90;;;;;;4150517;28;20504;-74
2021/10/24 01:30:35;;;;;;;8.60;3.70;;;4.00;99.90;;;;;;4147373;28;20543;-75
2021/10/24 01:32:37;;;;;;;6.67;3.53;;;4.00;99.90;;;;;;4170803;28;20477;-74
2021/10/24 01:34:47;;;;;;;9.90;3.83;;;3.90;99.90;;;;;;4175385;28;20449;-74
2021/10/24 01:36:48;;;;;;;8.53;3.70;;;3.90;99.90;;;;;;4171659;28;20457;-74
2021/10/24 01:38:51;;;;;;;11.40;4.07;;;3.90;99.90;;;;;;4147607;28;20849;-74
2021/10/24 01:40:55;;;;;;;7.70;3.90;;;3.90;99.90;;;;;;4155769;28;20458;-74
2021/10/24 01:42:57;;;;;;;8.77;4.47;;;3.80;99.90;;;;;;4163525;28;20481;-74
2021/10/24 01:44:59;;;;;;;7.73;4.10;;;3.80;99.90;;;;;;4160758;28;21039;-74
2021/10/24 01:47:01;;;;;;;7.73;4.10;;;3.80;99.90;;;;;;4167124;28;20704;-74
2021/10/24 01:49:03;;;;;;;12.47;4.23;;;3.80;99.90;;;;;;4165103;28;20528;-74
2021/10/24 01:51:04;;;;;;;8.77;4.50;;;3.80;99.90;;;;;;4167492;28;20454;-74
2021/10/24 01:53:07;;;;;;;10.10;4.13;;;3.80;99.90;;;;;;4160776;28;20477;-74
2021/10/24 01:55:11;;;;;;;9.63;4.23;;;3.70;99.90;;;;;;4163633;28;20466;-74
2021/10/24 01:57:13;;;;;;;9.27;4.93;;;3.70;99.90;;;;;;4167127;28;20826;-74
2021/10/24 01:59:15;;;;;;;9.00;3.97;;;3.70;99.90;;;;;;4163534;28;20477;-74
2021/10/24 02:01:17;;;;;;;9.70;3.83;;;3.70;99.90;;;;;;4163625;28;20507;-74
2021/10/24 02:03:18;;;;;;;7.90;4.40;;;3.70;99.90;;;;;;4168762;28;20500;-74
2021/10/24 02:05:21;;;;;;;7.73;3.83;;;3.70;99.90;;;;;;4163812;28;20450;-74
2021/10/24 02:07:22;;;;;;;8.83;3.67;;;3.60;99.90;;;;;;4163601;28;20915;-74
2021/10/24 02:09:24;;;;;;;12.87;4.37;;;3.60;99.90;;;;;;4163348;28;20492;-75
2021/10/24 02:11:27;;;;;;;8.10;4.13;;;3.60;99.90;;;;;;4165327;28;20927;-74
2021/10/24 02:13:29;;;;;;;10.67;4.30;;;3.60;99.90;;;;;;4161484;28;20821;-74
2021/10/24 02:15:31;;;;;;;6.43;3.83;;;3.60;99.90;;;;;;4163436;28;20873;-74
2021/10/24 02:17:33;;;;;;;10.27;4.30;;;3.60;99.90;;;;;;4163708;28;20894;-74
2021/10/24 02:19:35;;;;;;;13.57;4.13;;;3.60;99.90;;;;;;4165787;28;20478;-74
2021/10/24 02:21:36;;;;;;;10.03;4.57;;;3.60;99.90;;;;;;4161520;28;20450;-74
2021/10/24 02:23:38;;;;;;;10.20;4.70;;;3.60;99.90;;;;;;4163260;28;20488;-73
2021/10/24 02:25:39;;;;;;;9.47;4.53;;;3.50;99.90;;;;;;4162841;28;20519;-75
2021/10/24 02:27:43;;;;;;;10.13;4.33;;;3.50;99.90;;;;;;4165119;28;20469;-73
2021/10/24 02:29:45;;;;;;;8.30;4.17;;;3.50;99.90;;;;;;4165723;28;20502;-74
2021/10/24 02:31:46;;;;;;;14.43;4.90;;;3.50;99.90;;;;;;4162320;28;20457;-74
2021/10/24 02:33:48;;;;;;;7.97;4.37;;;3.50;99.90;;;;;;4161272;28;20985;-73
2021/10/24 02:35:50;;;;;;;10.47;4.93;;;3.50;99.90;;;;;;4171691;28;20897;-73
2021/10/24 02:37:52;;;;;;;8.47;4.33;;;3.50;99.90;;;;;;4175105;28;20816;-73
2021/10/24 02:39:54;;;;;;;7.67;4.20;;;3.50;99.90;;;;;;4151670;28;20532;-73
2021/10/24 02:41:56;;;;;;;11.93;4.30;;;3.40;99.90;;;;;;4163417;28;20457;-73
2021/10/24 02:43:59;;;;;;;10.00;4.60;;;3.40;99.90;;;;;;4168218;28;20485;-73
2021/10/24 02:46:00;;;;;;;9.17;3.93;;;3.40;99.90;;;;;;4179712;28;20517;-73
2021/10/24 02:48:03;;;;;;;8.63;4.50;;;3.40;99.90;;;;;;4147949;28;20473;-75
2021/10/24 02:50:05;;;;;;;10.10;4.63;;;3.40;99.90;;;;;;4145442;28;20483;-73
2021/10/24 02:52:07;;;;;;;10.80;4.43;;;3.40;99.90;;;;;;4162505;28;20449;-74
2021/10/24 02:54:09;;;;;;;8.00;4.67;;;3.30;99.90;;;;;;4160901;28;20465;-74
2021/10/24 02:56:10;;;;;;;9.30;4.77;;;3.30;99.90;;;;;;4162122;28;20473;-73
2021/10/24 02:58:12;;;;;;;7.73;4.20;;;3.30;99.90;;;;;;4176654;28;20460;-73
2021/10/24 03:00:16;;;;;;;9.47;4.47;;;3.30;99.90;;;;;;4162818;28;20561;-73
2021/10/24 03:02:17;;;;;;;9.63;4.10;;;3.20;99.90;;;;;;4148797;28;20478;-75
2021/10/24 03:04:19;;;;;;;12.77;4.63;;;3.20;99.90;;;;;;4147118;28;20451;-75
2021/10/24 03:06:21;;;;;;;8.87;4.07;;;3.20;99.90;;;;;;4160130;28;20806;-75
2021/10/24 03:08:22;;;;;;;9.07;4.40;;;3.20;99.90;;;;;;4163104;28;20469;-75
2021/10/24 03:10:24;;;;;;;12.10;4.87;;;3.20;99.90;;;;;;4164928;28;20492;-75
2021/10/24 03:12:26;;;;;;;7.43;4.10;;;3.10;99.90;;;;;;4169084;28;20454;-75
2021/10/24 03:14:28;;;;;;;7.77;4.27;;;3.10;99.90;;;;;;4163410;28;20438;-75
2021/10/24 03:16:31;;;;;;;7.40;4.50;;;3.10;99.90;;;;;;4163140;28;20496;-75
2021/10/24 03:18:33;;;;;;;8.33;4.40;;;3.10;99.90;;;;;;4153075;28;20521;-75
2021/10/24 03:20:35;;;;;;;10.23;4.40;;;3.10;99.90;;;;;;4146277;28;20854;-75
2021/10/24 03:22:36;;;;;;;8.13;4.30;;;3.10;99.90;;;;;;4153758;28;20478;-75
2021/10/24 03:24:38;;;;;;;8.40;4.40;;;3.10;99.90;;;;;;4175676;28;20453;-75
2021/10/24 03:26:40;;;;;;;9.00;4.10;;;3.10;99.90;;;;;;4162693;28;20517;-75
2021/10/24 03:28:42;;;;;;;8.40;4.73;;;3.00;99.90;;;;;;4146065;28;21050;-75
2021/10/24 03:30:43;;;;;;;8.23;4.70;;;3.00;99.90;;;;;;4152339;28;20830;-75
2021/10/24 03:32:46;;;;;;;9.53;4.40;;;3.00;99.90;;;;;;4162015;28;20484;-75
2021/10/24 03:34:48;;;;;;;9.27;4.50;;;3.00;99.90;;;;;;4154591;28;20531;-75
2021/10/24 03:36:50;;;;;;;10.23;4.63;;;2.90;99.90;;;;;;4147991;28;20491;-75
2021/10/24 03:38:52;;;;;;;9.10;4.70;;;2.90;99.90;;;;;;4149456;28;20569;-75
2021/10/24 03:40:54;;;;;;;9.33;4.53;;;2.90;99.90;;;;;;4149401;28;20909;-75
2021/10/24 03:42:55;;;;;;;11.00;4.37;;;2.90;99.90;;;;;;4155699;28;20523;-75
2021/10/24 03:44:57;;;;;;;8.60;4.80;;;2.90;99.90;;;;;;4165735;28;20969;-75
2021/10/24 03:46:59;;;;;;;7.13;4.27;;;2.90;99.90;;;;;;4168322;28;20472;-75
2021/10/24 03:49:03;;;;;;;11.70;4.63;;;2.80;99.90;;;;;;4169101;28;20492;-75
2021/10/24 03:51:04;;;;;;;8.60;4.70;;;2.80;99.90;;;;;;4160738;28;20533;-75
2021/10/24 03:53:06;;;;;;;9.67;4.20;;;2.80;99.90;;;;;;4157518;28;20478;-75
2021/10/24 03:55:11;;;;;;;9.07;4.80;;;2.80;99.90;;;;;;4162020;28;20522;-75
2021/10/24 03:57:13;;;;;;;7.47;4.27;;;2.80;99.90;;;;;;4165717;28;20942;-75
2021/10/24 03:59:15;;;;;;;10.63;5.43;;;2.80;99.90;;;;;;4158411;28;20831;-75
2021/10/24 04:01:16;;;;;;;10.13;4.33;;;2.80;99.90;;;;;;4148735;28;20780;-76
2021/10/24 04:03:18;;;;;;;9.13;4.77;;;2.80;99.90;;;;;;4148422;28;20496;-75
2021/10/24 04:05:22;;;;;;;9.20;5.37;;;2.80;99.90;;;;;;4148858;28;20450;-76
2021/10/24 04:07:24;;;;;;;10.67;5.07;;;2.80;99.90;;;;;;4158674;28;20990;-75
2021/10/24 04:09:25;;;;;;;8.47;4.60;;;2.70;99.90;;;;;;4172965;28;20825;-75
2021/10/24 04:11:27;;;;;;;9.90;4.90;;;2.80;99.90;;;;;;4171647;28;20460;-75
2021/10/24 04:13:29;;;;;;;10.30;4.67;;;2.70;99.90;;;;;;4164876;28;20456;-76
2021/10/24 04:15:30;;;;;;;10.87;5.00;;;2.70;99.90;;;;;;4165016;28;20510;-76
2021/10/24 04:17:32;;;;;;;8.97;5.00;;;2.70;99.90;;;;;;4151240;28;20474;-75
2021/10/24 04:19:34;;;;;;;11.90;4.93;;;2.70;99.90;;;;;;4153260;28;20473;-75
2021/10/24 04:21:37;;;;;;;8.20;4.97;;;2.70;99.90;;;;;;4179078;28;20519;-75
2021/10/24 04:23:39;;;;;;;12.20;4.97;;;2.70;99.90;;;;;;4164914;28;20489;-75
2021/10/24 04:25:41;;;;;;;9.03;4.57;;;2.70;99.90;;;;;;4149539;28;20478;-75
2021/10/24 04:27:42;;;;;;;7.90;4.03;;;2.70;99.90;;;;;;4163117;28;20533;-76
2021/10/24 04:29:44;;;;;;;9.03;4.40;;;2.70;99.90;;;;;;4176456;28;20480;-75
2021/10/24 04:31:46;;;;;;;7.47;4.30;;;2.70;99.90;;;;;;4163960;28;20488;-75
2021/10/24 04:33:47;;;;;;;10.87;4.53;;;2.70;99.90;;;;;;4165261;28;21020;-75
2021/10/24 04:35:49;;;;;;;8.23;4.83;;;2.60;99.90;;;;;;4163839;28;20499;-75
2021/10/24 04:37:52;;;;;;;7.93;4.20;;;2.50;99.90;;;;;;4169715;28;20560;-75
2021/10/24 04:39:54;;;;;;;9.03;4.43;;;2.60;99.90;;;;;;4175725;28;20509;-75
2021/10/24 04:41:56;;;;;;;9.50;4.53;;;2.60;99.90;;;;;;4164421;28;20847;-75
2021/10/24 04:43:57;;;;;;;7.23;4.13;;;2.60;99.90;;;;;;4157528;28;20488;-75
2021/10/24 04:45:59;;;;;;;7.10;4.13;;;2.60;99.90;;;;;;4169651;28;20513;-75
2021/10/24 04:48:01;;;;;;;8.57;4.63;;;2.50;99.90;;;;;;4180727;28;20466;-75
2021/10/24 04:50:03;;;;;;;7.97;4.13;;;2.50;99.90;;;;;;4178241;28;20492;-75
2021/10/24 04:52:06;;;;;;;12.37;4.63;;;2.50;99.90;;;;;;4171357;28;20476;-75
2021/10/24 04:54:09;;;;;;;7.50;3.80;;;2.50;99.90;;;;;;4169406;28;20492;-75
2021/10/24 04:56:11;;;;;;;7.77;4.10;;;2.50;99.90;;;;;;4180335;28;20486;-75
2021/10/24 04:58:12;;;;;;;9.03;4.50;;;2.40;99.90;;;;;;4181291;28;20482;-75
2021/10/24 05:00:14;;;;;;;9.97;4.43;;;2.50;99.90;;;;;;4179844;28;21005;-76
2021/10/24 05:02:16;;;;;;;9.17;4.37;;;2.40;99.90;;;;;;4172657;28;21047;-75
2021/10/24 05:04:19;;;;;;;6.17;3.60;;;2.40;99.90;;;;;;4164543;28;20591;-75
2021/10/24 05:06:21;;;;;;;10.03;4.40;;;2.40;99.90;;;;;;4164110;28;20898;-75
2021/10/24 05:08:23;;;;;;;7.87;4.07;;;2.40;99.90;;;;;;4166981;28;20480;-75
2021/10/24 05:10:25;;;;;;;7.20;4.03;;;2.40;99.90;;;;;;4162066;28;20885;-75
2021/10/24 05:12:27;;;;;;;9.30;4.27;;;2.40;99.90;;;;;;4179583;28;20460;-75
2021/10/24 05:14:29;;;;;;;7.07;3.77;;;2.40;99.90;;;;;;4164241;28;20464;-75
2021/10/24 05:16:31;;;;;;;8.70;3.97;;;2.40;99.90;;;;;;4173243;28;20472;-75
2021/10/24 05:18:32;;;;;;;7.47;3.60;;;2.40;99.90;;;;;;4173053;28;20476;-75
2021/10/24 05:20:34;;;;;;;6.87;3.57;;;2.40;99.90;;;;;;4161887;28;20500;-75
2021/10/24 05:22:36;;;;;;;11.17;4.27;;;2.40;99.90;;;;;;4162725;28;20496;-75
2021/10/24 05:24:37;;;;;;;10.27;4.20;;;2.30;99.90;;;;;;4164138;28;20546;-75
2021/10/24 05:26:40;;;;;;;6.80;3.60;;;2.30;99.90;;;;;;4162916;28;20479;-75
2021/10/24 05:28:42;;;;;;;6.83;3.70;;;2.30;99.90;;;;;;4163486;28;20460;-76
2021/10/24 05:30:44;;;;;;;7.77;3.63;;;2.30;99.90;;;;;;4163845;28;20475;-76
2021/10/24 05:32:46;;;;;;;7.93;3.90;;;2.30;99.90;;;;;;4167580;28;20887;-76
2021/10/24 05:34:47;;;;;;;6.33;3.57;;;2.30;99.90;;;;;;4171897;28;20502;-75
2021/10/24 05:36:49;;;;;;;7.43;3.77;;;2.30;99.90;;;;;;4165655;28;20482;-75
2021/10/24 05:38:51;;;;;;;8.83;4.13;;;2.30;99.90;;;;;;4167505;28;20930;-76
2021/10/24 05:40:53;;;;;;;8.07;3.73;;;2.30;99.90;;;;;;4179284;28;20460;-75
2021/10/24 05:42:57;;;;;;;8.07;3.70;;;2.30;99.90;;;;;;4149408;28;20504;-75
2021/10/24 05:44:59;;;;;;;7.33;3.57;;;2.20;99.90;;;;;;4163531;28;20507;-75
2021/10/24 05:47:01;;;;;;;7.37;3.33;;;2.20;99.90;;;;;;4172238;28;20486;-75
2021/10/24 05:49:03;;;;;;;7.53;3.47;;;2.20;99.90;;;;;;4170897;28;20975;-75
2021/10/24 05:51:05;;;;;;;6.20;3.07;;;2.20;99.90;;;;;;4166965;28;20555;-75
2021/10/24 05:53:07;;;;;;;6.50;3.50;;;2.20;99.90;;;;;;4158115;28;20547;-75
2021/10/24 05:55:09;;;;;;;9.67;3.37;;;2.20;99.90;;;;;;4147940;28;20516;-75
2021/10/24 05:57:11;;;;;;;7.63;3.00;;;2.20;99.90;;;;;;4160021;28;20540;-75
2021/10/24 05:59:14;;;;;;;5.33;3.10;;;2.20;99.90;;;;;;4159863;28;20476;-75
2021/10/24 06:01:15;;;;;;;7.07;3.00;;;2.20;99.90;;;;;;4159697;28;20966;-75
2021/10/24 06:03:17;;;;;;;7.40;3.27;;;2.20;99.90;;;;;;4163654;28;20507;-75
2021/10/24 06:05:19;;;;;;;7.97;3.13;;;2.20;99.90;;;;;;4163409;28;20499;-75
2021/10/24 06:07:20;;;;;;;8.60;3.40;;;2.20;99.90;;;;;;4162588;28;20460;-75
2021/10/24 06:09:30;;;;;;;7.10;3.10;;;2.20;99.90;;;;;;4161964;28;20488;-75
2021/10/24 06:11:35;;;;;;;7.23;3.30;;;2.20;99.90;;;;;;4166911;28;20884;-74
2021/10/24 06:13:36;;;;;;;6.07;3.20;;;2.20;99.90;;;;;;4162186;28;20575;-75
2021/10/24 06:15:40;;;;;;;6.67;2.93;;;2.20;99.90;;;;;;4162160;28;20453;-75
2021/10/24 06:17:43;;;;;;;11.13;3.40;;;2.20;99.90;;;;;;4162220;28;20910;-75
2021/10/24 06:19:45;;;;;;;5.73;3.20;;;2.20;99.90;;;;;;4161570;28;20485;-75
2021/10/24 06:21:46;;;;;;;6.00;3.27;;;2.20;99.90;;;;;;4165266;28;20483;-75
2021/10/24 06:23:48;;;;;;;6.37;2.83;;;2.20;99.90;;;;;;4171720;28;20452;-75
2021/10/24 06:25:50;;;;;;;5.07;2.83;;;2.20;99.90;;;;;;4162804;28;20464;-75
2021/10/24 06:27:52;;;;;;;4.97;2.73;;;2.20;99.90;;;;;;4159476;28;20582;-75
2021/10/24 06:29:53;;;;;;;5.10;2.70;;;2.20;99.90;;;;;;4146891;28;20523;-75
2021/10/24 06:31:57;;;;;;;4.67;2.83;;;2.20;99.90;;;;;;4162166;28;20479;-75
2021/10/24 06:33:58;;;;;;;5.27;2.90;;;2.20;99.90;;;;;;4179999;28;21035;-75
2021/10/24 06:36:00;;;;;;;6.60;2.80;;;2.20;99.90;;;;;;4167714;28;20848;-75
2021/10/24 06:38:02;;;;;;;6.63;2.73;;;2.20;99.90;;;;;;4162501;28;20457;-75
2021/10/24 06:40:04;;;;;;;5.47;3.33;;;2.20;99.90;;;;;;4163065;28;20480;-75
2021/10/24 06:42:05;;;;;;;4.67;2.67;;;2.20;99.90;;;;;;4170095;28;20476;-75
2021/10/24 06:44:07;;;;;;;5.70;2.90;;;2.20;99.90;;;;;;4171593;28;20499;-75
2021/10/24 06:46:09;;;;;;;4.97;2.63;;;2.20;99.90;;;;;;4149542;28;20470;-75
2021/10/24 06:48:12;;;;;;;5.83;2.80;;;2.20;99.90;;;;;;4163410;28;20479;-75
2021/10/24 06:50:14;;;;;;;6.00;2.90;;;2.20;99.90;;;;;;4162610;28;20475;-74
2021/10/24 06:52:16;;;;;;;5.93;2.87;;;2.20;99.90;;;;;;4162303;28;20457;-73
2021/10/24 06:54:18;;;;;;;6.63;3.20;;;2.30;99.90;;;;;;4161136;28;20511;-74
2021/10/24 06:56:19;;;;;;;5.13;2.83;;;2.30;99.90;;;;;;4162238;28;20477;-74
2021/10/24 06:58:21;;;;;;;6.57;2.93;;;2.30;99.90;;;;;;4163429;28;20498;-74
2021/10/24 07:00:24;;;;;;;7.10;2.90;;;2.30;99.90;;;;;;4153490;28;20486;-73
2021/10/24 07:02:27;;;;;;;4.93;2.70;;;2.30;99.90;;;;;;4152312;28;20492;-75
2021/10/24 07:04:30;;;;;;;6.07;2.90;;;2.40;99.90;;;;;;4161233;28;21002;-74
2021/10/24 07:06:31;;;;;;;7.37;3.17;;;2.40;99.90;;;;;;4160341;28;20527;-74
2021/10/24 07:08:33;;;;;;;5.33;2.70;;;2.40;99.90;;;;;;4157966;28;20827;-74
2021/10/24 07:10:35;;;;;;;7.10;3.07;;;2.40;99.90;;;;;;4185033;23;20896;-78
2021/10/24 07:12:37;;;;;;;5.30;2.83;;;2.80;99.90;;;;;;4161748;28;20583;-78
2021/10/24 07:14:39;;;;;;;4.90;3.10;;;2.50;99.90;;;;;;4162712;28;20506;-80
2021/10/24 07:16:41;;;;;;;7.40;3.27;;;2.50;99.90;;;;;;4165393;28;20468;-78
2021/10/24 07:18:42;;;;;;;7.10;3.30;;;2.50;99.90;;;;;;4164332;28;20491;-78
2021/10/24 07:20:45;;;;;;;5.87;3.07;;;2.50;99.90;;;;;;4160539;28;20484;-80
2021/10/24 07:22:47;;;;;;;5.73;2.93;;;2.50;99.90;;;;;;4158150;28;20490;-78
2021/10/24 07:24:49;;;;;;;7.53;3.20;;;2.40;99.90;;;;;;4159306;28;21004;-79
2021/10/24 07:26:51;;;;;;;7.00;2.83;;;2.60;99.90;;;;;;4167669;28;20485;-80
2021/10/24 07:28:52;;;;;;;5.07;3.13;;;2.70;99.90;;;;;;4165158;28;20513;-79
2021/10/24 07:30:54;;;;;;;6.97;3.00;;;2.70;99.90;;;;;;4169785;28;20544;-79
2021/10/24 07:32:58;;;;;;;5.27;2.93;;;2.70;99.90;;;;;;4173485;28;20465;-79
2021/10/24 07:35:00;;;;;;;5.90;3.20;;;2.90;99.90;;;;;;4161491;28;21115;-80
2021/10/24 07:37:03;;;;;;;5.40;3.20;;;2.80;99.90;;;;;;4167947;28;20476;-81
2021/10/24 07:39:06;;;;;;;5.87;3.10;;;2.80;99.90;;;;;;4178410;28;20456;-81
2021/10/24 07:41:08;;;;;;;6.37;3.20;;;2.90;99.90;;;;;;4165800;28;20509;-81
2021/10/24 07:43:10;;;;;;;9.53;3.50;;;2.90;99.90;;;;;;4178768;28;20449;-81
2021/10/24 07:45:12;;;;;;;7.47;4.13;;;2.90;99.90;;;;;;4169797;28;20536;-80
2021/10/24 07:47:14;;;;;;;9.10;3.60;;;3.00;99.90;;;;;;4163003;28;20474;-80
2021/10/24 07:49:16;;;;;;;8.60;3.43;;;3.10;99.90;;;;;;4164286;28;20489;-80
2021/10/24 07:51:17;;;;;;;4.60;3.10;;;3.10;99.90;;;;;;4156081;28;21110;-80
2021/10/24 07:53:25;;;;;;;5.80;3.03;;;3.10;99.90;;;;;;4166058;28;20476;-80
2021/10/24 07:55:26;;;;;;;5.13;3.00;;;3.10;99.90;;;;;;4162945;28;20494;-79
2021/10/24 07:57:28;;;;;;;5.60;2.80;;;3.20;99.90;;;;;;4155538;28;20476;-80
2021/10/24 07:59:30;;;;;;;5.87;2.87;;;3.20;99.90;;;;;;4169005;28;20578;-80
2021/10/24 08:01:32;;;;;;;4.97;2.87;;;3.20;99.90;;;;;;4165493;28;20485;-80
2021/10/24 08:03:34;;;;;;;4.93;2.57;;;3.20;99.90;;;;;;4163367;28;20457;-81
2021/10/24 08:05:36;;;;;;;6.53;2.83;;;3.30;99.90;;;;;;4165014;28;20528;-80
2021/10/24 08:07:40;;;;;;;4.83;2.80;;;3.30;99.90;;;;;;4159919;28;20474;-78
2021/10/24 08:09:43;;;;;;;8.10;3.03;;;3.40;99.90;;;;;;4148386;28;20492;-79
2021/10/24 08:11:45;;;;;;;6.43;3.30;;;3.40;99.90;;;;;;4159168;28;20476;-77
2021/10/24 08:13:47;;;;;;;5.47;2.80;;;3.60;99.90;;;;;;4164785;28;20913;-78
2021/10/24 08:15:49;;;;;;;7.63;3.10;;;3.70;99.90;;;;;;4161342;28;20875;-80
2021/10/24 08:17:51;;;;;;;6.90;2.93;;;3.70;99.90;;;;;;4162676;28;20466;-80
2021/10/24 08:19:53;;;;;;;4.10;2.20;;;3.70;99.90;;;;;;4161408;28;20466;-79
2021/10/24 08:21:55;;;;;;;5.07;2.27;;;3.80;99.90;;;;;;4161341;28;20893;-80
2021/10/24 08:23:57;;;;;;;6.77;2.80;;;3.80;99.90;;;;;;4166580;28;20442;-80
2021/10/24 08:26:00;;;;;;;6.37;2.97;;;3.80;99.90;;;;;;4164955;28;20505;-80
2021/10/24 08:28:03;;;;;;;6.50;2.63;;;3.90;99.90;;;;;;4162634;28;20911;-80
2021/10/24 08:30:08;;;;;;;7.47;2.63;;;3.90;99.90;;;;;;4162346;28;20489;-82
2021/10/24 08:32:11;;;;;;;5.20;2.57;;;4.00;99.90;;;;;;4159028;28;20476;-80
2021/10/24 08:34:13;;;;;;;4.60;2.20;;;4.10;99.90;;;;;;4157058;28;20916;-80
2021/10/24 08:36:14;;;;;;;5.90;2.50;;;4.10;99.90;;;;;;4159876;28;20457;-80
2021/10/24 08:38:16;;;;;;;5.80;2.27;;;4.20;99.90;;;;;;4160931;28;20454;-80
2021/10/24 08:40:18;;;;;;;5.53;2.20;;;4.20;99.90;;;;;;4158682;28;21051;-80
2021/10/24 08:42:26;;;;;;;4.73;2.50;;;4.30;99.90;;;;;;4157360;28;20466;-80
2021/10/24 08:44:28;;;;;;;5.53;2.63;;;4.30;99.90;;;;;;4158387;28;20959;-80
2021/10/24 08:46:30;;;;;;;6.67;3.07;;;4.40;99.90;;;;;;4156537;28;20466;-81
2021/10/24 08:48:34;;;;;;;4.70;2.63;;;4.40;99.90;;;;;;4160319;28;20497;-81
2021/10/24 08:50:36;;;;;;;5.90;2.50;;;4.50;99.90;;;;;;4157787;28;20576;-82
2021/10/24 08:52:39;;;;;;;5.73;2.33;;;4.50;99.90;;;;;;4161791;28;20465;-83
2021/10/24 08:54:42;;;;;;;5.10;2.53;;;4.50;99.90;;;;;;4162021;28;20528;-81
2021/10/24 08:56:44;;;;;;;4.80;2.47;;;4.60;99.90;;;;;;4159293;28;20515;-79
2021/10/24 08:58:48;;;;;;;5.60;2.27;;;4.60;99.90;;;;;;4158601;28;20540;-80
2021/10/24 09:00:50;;;;;;;4.13;2.10;;;4.60;99.90;;;;;;4163461;28;21022;-80
2021/10/24 09:02:57;;;;;;;7.73;2.30;;;4.70;99.90;;;;;;4159944;28;20493;-78
2021/10/24 09:05:00;;;;;;;5.17;2.30;;;4.70;99.90;;;;;;4156240;28;20834;-79
2021/10/24 09:07:03;;;;;;;4.23;2.03;;;4.70;99.90;;;;;;4161155;28;20474;-80
2021/10/24 09:09:13;;;;;;;3.27;1.90;;;4.80;99.90;;;;;;4156773;28;20450;-80
2021/10/24 09:11:17;;;;;;;5.57;2.67;;;4.80;99.90;;;;;;4157521;28;20480;-79
2021/10/24 09:13:20;;;;;;;5.27;2.23;;;4.90;99.90;;;;;;4156071;28;21006;-81
2021/10/24 09:15:23;;;;;;;3.50;2.20;;;4.90;99.90;;;;;;4154710;28;20454;-82
2021/10/24 09:17:27;;;;;;;4.40;2.30;;;5.00;99.90;;;;;;4151264;28;20952;-82
2021/10/24 09:19:37;;;;;;;4.57;2.10;;;5.00;99.90;;;;;;4154173;28;20902;-81
2021/10/24 09:21:39;;;;;;;3.20;1.93;;;5.10;99.90;;;;;;4162036;28;20469;-80
2021/10/24 09:23:40;;;;;;;5.03;2.17;;;5.20;99.90;;;;;;4155898;28;20462;-81
2021/10/24 09:26:03;;;;;;;3.67;2.20;;;5.20;99.90;;;;;;4162611;28;20494;-82
2021/10/24 09:28:05;;;;;;;4.93;2.10;;;5.20;99.90;;;;;;4155592;28;20474;-81
2021/10/24 09:30:10;;;;;;;4.37;2.33;;;5.30;99.90;;;;;;4160141;28;20558;-82
2021/10/24 09:32:13;;;;;;;4.30;2.00;;;5.40;99.90;;;;;;4154498;28;20453;-82
2021/10/24 09:34:16;;;;;;;6.23;2.50;;;5.40;99.90;;;;;;4158247;28;20469;-81
2021/10/24 09:36:24;;;;;;;3.93;2.30;;;5.50;99.90;;;;;;4163844;28;20442;-80
2021/10/24 09:38:26;;;;;;;4.20;2.30;;;5.60;99.90;;;;;;4153964;28;20489;-81
2021/10/24 09:40:30;;;;;;;5.40;1.80;;;5.60;99.90;;;;;;4156524;28;20470;-79
2021/10/24 09:42:32;;;;;;;4.03;2.20;;;5.90;99.90;;;;;;4157489;28;20458;-82
2021/10/24 09:44:34;;;;;;;5.73;2.40;;;5.80;99.90;;;;;;4157939;28;20457;-81
2021/10/24 09:46:36;;;;;;;3.07;2.00;;;5.90;99.90;;;;;;4160704;28;20495;-80
2021/10/24 09:48:44;;;;;;;5.07;2.30;;;6.00;99.90;;;;;;4159569;28;20457;-79
2021/10/24 09:50:50;;;;;;;6.50;2.30;;;6.00;99.90;;;;;;4156080;28;20848;-79
2021/10/24 09:52:53;;;;;;;7.20;2.40;;;6.20;99.90;;;;;;4153024;28;20489;-82
2021/10/24 09:54:55;;;;;;;4.33;2.10;;;6.30;99.90;;;;;;4154837;28;20544;-84
2021/10/24 09:56:57;;;;;;;5.00;2.10;;;6.40;99.90;;;;;;4157886;28;20464;-82
2021/10/24 09:59:00;;;;;;;4.10;2.00;;;6.40;99.90;;;;;;4158092;28;20550;-81
2021/10/24 10:01:02;;;;;;;7.17;1.97;;;6.50;99.90;;;;;;4160725;28;20842;-80
2021/10/24 10:03:06;;;;;;;5.97;2.50;;;6.60;99.90;;;;;;4159092;28;20497;-80
2021/10/24 10:05:10;;;;;;;8.47;2.50;;;6.60;99.90;;;;;;4162950;28;20473;-81
2021/10/24 10:07:12;;;;;;;3.40;1.87;;;6.70;99.90;;;;;;4162253;28;20467;-81
2021/10/24 10:09:14;;;;;;;3.73;2.13;;;6.80;99.90;;;;;;4162807;28;20824;-79
2021/10/24 10:11:23;;;;;;;4.13;1.80;;;6.90;99.90;;;;;;4160178;28;20526;-81
2021/10/24 10:13:27;;;;;;;5.47;2.23;;;7.00;99.90;;;;;;4159981;28;20510;-84
2021/10/24 10:15:36;;;;;;;4.07;1.90;;;7.10;99.90;;;;;;4152881;28;20462;-81
2021/10/24 10:17:38;;;;;;;4.33;1.93;;;7.10;99.90;;;;;;4153035;28;20530;-80
2021/10/24 10:19:41;;;;;;;3.30;1.73;;;7.20;99.90;;;;;;4155190;28;20982;-78
2021/10/24 10:21:47;;;;;;;3.87;1.70;;;7.30;99.90;;;;;;4155978;28;20503;-79
2021/10/24 10:23:49;;;;;;;5.17;1.90;;;7.40;99.90;;;;;;4153463;28;20458;-79
2021/10/24 10:25:51;;;;;;;3.87;1.83;;;7.50;99.90;;;;;;4156396;28;20489;-79
2021/10/24 10:27:55;;;;;;;4.37;2.30;;;7.60;99.90;;;;;;4152188;28;20461;-80
2021/10/24 10:29:59;;;;;;;3.50;1.47;;;7.70;99.90;;;;;;4157728;28;20572;-80
2021/10/24 10:32:15;;;;;;;4.07;1.60;;;7.80;99.90;;;;;;4157858;28;20481;-82
2021/10/24 10:34:17;;;;;;;2.63;1.40;;;7.80;99.90;;;;;;4159319;28;20523;-79
2021/10/24 10:36:18;;;;;;;4.60;1.70;;;7.90;99.90;;;;;;4154771;28;20462;-78
2021/10/24 10:38:40;;;;;;;5.07;1.57;;;8.00;99.90;;;;;;4157967;28;20450;-81
2021/10/24 10:40:42;;;;;;;4.13;1.63;;;8.10;99.90;;;;;;4156261;28;20700;-79
2021/10/24 10:42:53;;;;;;;4.00;1.97;;;8.20;99.90;;;;;;4157606;28;20979;-82
2021/10/24 10:45:28;;;;;;;3.07;1.70;;;8.30;99.90;;;;;;4159000;28;20458;-82